Time;durP1;ratioP1;P1;durP2;ratioP2;P2;SDS_P1;SDS_P2;PMS_P1;PMS_P2;Temp;Humidity;BMP_temperature;BMP_pressure;BME280_temperature;BME280_humidity;BME280_pressure;Samples;Min_cycle;Max_cycle;Signal;HPM_P1;HPM_P2
2023/04/05 00:01:27;;;;;;;;;1.00;1.00;;;;;20.22;48.51;101577.75;110207;1248;19851;-39
2023/04/05 00:03:56;;;;;;;;;2.00;2.00;;;;;20.22;48.49;101574.73;110222;1257;20689;-39
2023/04/05 00:06:25;;;;;;;;;2.00;2.00;;;;;20.22;48.33;101575.98;110215;1251;19737;-39
2023/04/05 00:08:54;;;;;;;;;2.00;2.00;;;;;20.22;48.35;101574.00;110199;1264;18736;-39
2023/04/05 00:11:21;;;;;;;;;3.00;3.00;;;;;20.22;48.34;101574.03;110231;1264;19341;-39
2023/04/05 00:13:49;;;;;;;;;2.00;2.00;;;;;20.21;48.25;101573.21;110237;1251;19664;-39
2023/04/05 00:16:16;;;;;;;;;2.00;2.00;;;;;20.21;48.45;101573.88;110230;1248;22141;-39
2023/04/05 00:18:48;;;;;;;;;2.00;2.00;;;;;20.20;48.35;101570.15;110238;1251;20749;-39
2023/04/05 00:21:16;;;;;;;;;1.00;1.00;;;;;20.21;48.37;101570.24;110203;1251;19632;-39
2023/04/05 00:23:43;;;;;;;;;2.00;2.00;;;;;20.21;48.39;101566.08;110195;1263;18656;-39
2023/04/05 00:26:11;;;;;;;;;2.00;2.00;;;;;20.21;48.28;101565.20;110221;1251;20797;-39
2023/04/05 00:28:38;;;;;;;;;2.00;2.00;;;;;20.21;48.24;101563.22;110181;1248;19532;-40
2023/04/05 00:31:05;;;;;;;;;4.00;2.00;;;;;20.21;48.38;101561.39;110204;1264;18826;-39
2023/04/05 00:33:33;;;;;;;;;2.00;2.00;;;;;20.20;48.33;101562.05;110229;1251;20783;-39
2023/04/05 00:36:00;;;;;;;;;4.00;2.00;;;;;20.21;48.27;101557.27;110190;1264;18373;-39
2023/04/05 00:38:27;;;;;;;;;4.00;2.00;;;;;20.20;48.33;101554.73;110215;1251;20137;-39
2023/04/05 00:40:55;;;;;;;;;1.67;1.67;;;;;20.20;48.40;101551.67;110211;1250;20829;-39
2023/04/05 00:43:22;;;;;;;;;4.00;2.00;;;;;20.19;48.19;101552.48;110227;1251;20539;-39
2023/04/05 00:45:49;;;;;;;;;4.00;2.00;;;;;20.20;48.18;101548.78;110185;1248;22766;-39
2023/04/05 00:48:17;;;;;;;;;2.00;2.00;;;;;20.19;48.19;101546.70;110235;1257;20569;-39
2023/04/05 00:50:45;;;;;;;;;1.00;1.00;;;;;20.20;48.44;101547.73;110205;1263;22354;-39
2023/04/05 00:53:12;;;;;;;;;1.50;1.50;;;;;20.19;48.17;101543.43;110207;1264;18611;-39
2023/04/05 00:55:39;;;;;;;;;1.00;1.00;;;;;20.18;48.21;101540.23;110225;1263;19466;-39
2023/04/05 00:58:08;;;;;;;;;2.00;2.00;;;;;20.19;48.36;101542.96;110208;1263;18544;-39
2023/04/05 01:00:35;;;;;;;;;2.00;2.00;;;;;20.19;48.34;101544.89;110215;1263;18624;-37
2023/04/05 01:03:03;;;;;;;;;3.50;2.00;;;;;20.18;48.23;101543.40;110237;1263;19369;-40
2023/04/05 01:05:30;;;;;;;;;2.00;2.00;;;;;20.18;48.20;101549.02;110303;1263;18445;-39
2023/04/05 01:07:57;;;;;;;;;2.00;2.00;;;;;20.18;48.18;101547.17;110181;1257;21003;-40
2023/04/05 01:10:24;;;;;;;;;2.00;2.00;;;;;20.18;48.29;101547.31;110190;1248;21708;-40
2023/04/05 01:12:52;;;;;;;;;2.00;2.00;;;;;20.18;48.25;101546.59;110215;1251;19637;-39
2023/04/05 01:15:19;;;;;;;;;2.00;2.00;;;;;20.18;48.18;101539.41;110195;1263;19869;-40
2023/04/05 01:17:47;;;;;;;;;1.00;1.00;;;;;20.18;48.19;101537.92;110212;1263;22033;-38
2023/04/05 01:20:15;;;;;;;;;2.00;2.00;;;;;20.17;48.26;101532.71;110276;1263;18538;-39
2023/04/05 01:22:42;;;;;;;;;2.00;2.00;;;;;20.18;48.25;101530.52;110195;1251;20325;-39
2023/04/05 01:25:10;;;;;;;;;3.50;2.00;;;;;20.17;48.23;101527.54;110218;1264;20710;-39
2023/04/05 01:27:38;;;;;;;;;2.00;2.00;;;;;20.17;48.24;101527.47;110212;1264;22677;-39
2023/04/05 01:30:05;;;;;;;;;3.33;2.00;;;;;20.17;48.18;101524.46;110207;1264;18619;-39
2023/04/05 01:32:32;;;;;;;;;2.50;2.50;;;;;20.16;48.16;101526.84;110206;1248;20835;-39
2023/04/05 01:35:00;;;;;;;;;2.00;2.00;;;;;20.16;48.14;101526.71;110205;1264;18431;-38
2023/04/05 01:37:27;;;;;;;;;2.00;2.00;;;;;20.16;48.13;101521.79;110249;1264;23349;-38
2023/04/05 01:39:55;;;;;;;;;2.00;2.00;;;;;20.17;48.15;101523.16;110315;1264;19381;-38
2023/04/05 01:42:23;;;;;;;;;3.50;3.50;;;;;20.16;48.25;101523.42;110316;1264;18395;-37
2023/04/05 01:44:50;;;;;;;;;2.00;1.50;;;;;20.15;48.12;101516.96;110302;1264;18656;-39
2023/04/05 01:47:18;;;;;;;;;1.00;1.00;;;;;20.16;48.21;101514.55;110245;1264;19410;-38
2023/04/05 01:49:45;;;;;;;;;4.00;4.00;;;;;20.16;48.13;101513.24;110214;1263;19570;-39
2023/04/05 01:52:12;;;;;;;;;2.00;2.00;;;;;20.15;47.92;101512.46;110273;1264;19917;-39
2023/04/05 01:54:40;;;;;;;;;2.00;2.00;;;;;20.15;48.03;101515.68;110229;1257;20793;-39
2023/04/05 01:57:07;;;;;;;;;2.00;2.00;;;;;20.15;48.17;101513.03;110205;1264;18487;-42
2023/04/05 01:59:34;;;;;;;;;1.00;1.00;;;;;20.16;48.13;101513.99;110199;1263;19986;-39
2023/04/05 02:02:01;;;;;;;;;2.00;2.00;;;;;20.15;48.00;101515.41;110200;1251;22715;-38
2023/04/05 02:04:29;;;;;;;;;1.50;1.50;;;;;20.16;47.94;101520.39;110214;1264;19570;-39
2023/04/05 02:06:57;;;;;;;;;1.50;1.50;;;;;20.14;47.99;101516.15;110232;1263;19962;-38
2023/04/05 02:09:24;;;;;;;;;4.00;3.00;;;;;20.14;48.11;101516.73;110147;1257;21010;-38
2023/04/05 02:11:51;;;;;;;;;2.50;2.50;;;;;20.15;48.00;101513.91;110199;1264;19731;-38
2023/04/05 02:14:19;;;;;;;;;2.00;2.00;;;;;20.14;47.92;101514.55;110273;1257;20200;-38
2023/04/05 02:16:46;;;;;;;;;2.00;2.00;;;;;20.14;48.00;101511.83;110216;1264;22283;-38
2023/04/05 02:19:14;;;;;;;;;2.00;2.00;;;;;20.13;48.06;101507.71;110234;1248;20526;-38
2023/04/05 02:21:42;;;;;;;;;;;;;;;20.14;47.93;101507.34;110235;1251;20087;-38
2023/04/05 02:24:09;;;;;;;;;2.33;2.00;;;;;20.14;48.12;101505.64;110233;1264;19335;-38
2023/04/05 02:26:36;;;;;;;;;2.00;1.00;;;;;20.13;48.08;101503.60;110220;1263;18271;-38
2023/04/05 02:29:04;;;;;;;;;2.00;2.00;;;;;20.13;48.00;101500.19;110221;1251;20021;-38
2023/04/05 02:31:31;;;;;;;;;2.50;2.50;;;;;20.13;48.00;101506.15;110211;1248;22011;-39
2023/04/05 02:33:59;;;;;;;;;2.00;2.00;;;;;20.13;48.04;101509.27;110197;1250;19612;-37
2023/04/05 02:36:28;;;;;;;;;2.00;2.00;;;;;20.13;47.86;101509.92;110200;1251;20253;-38
2023/04/05 02:38:55;;;;;;;;;1.50;1.50;;;;;20.12;47.94;101509.36;110183;1251;20757;-38
2023/04/05 02:41:23;;;;;;;;;3.00;2.00;;;;;20.11;47.94;101511.04;110191;1251;20896;-38
2023/04/05 02:43:51;;;;;;;;;2.00;2.00;;;;;20.12;47.80;101509.16;110196;1257;19971;-39
2023/04/05 02:46:18;;;;;;;;;5.00;2.33;;;;;20.13;48.02;101508.15;110215;1251;20792;-39
2023/04/05 02:48:45;;;;;;;;;1.33;1.33;;;;;20.12;47.85;101506.05;110190;1251;19750;-39
2023/04/05 02:51:13;;;;;;;;;2.00;2.00;;;;;20.13;47.77;101507.06;110212;1251;20025;-40
2023/04/05 02:53:40;;;;;;;;;3.00;3.00;;;;;20.12;47.91;101502.84;110187;1264;19353;-39
2023/04/05 02:56:07;;;;;;;;;1.50;1.50;;;;;20.11;48.10;101503.95;110176;1256;19538;-38
2023/04/05 02:58:35;;;;;;;;;1.00;1.00;;;;;20.11;47.82;101501.78;110134;1257;19894;-39
2023/04/05 03:01:06;;;;;;;;;2.00;2.00;;;;;20.11;48.01;101500.48;110163;1263;19351;-39
2023/04/05 03:03:34;;;;;;;;;1.50;1.50;;;;;20.12;48.04;101501.75;110115;1251;19588;-40
2023/04/05 03:06:08;;;;;;;;;2.00;2.00;;;;;20.12;47.89;101505.33;110178;1263;18623;-40
2023/04/05 03:08:37;;;;;;;;;1.00;1.00;;;;;20.12;47.88;101502.46;110182;1257;19354;-39
2023/04/05 03:11:04;;;;;;;;;2.00;2.00;;;;;20.11;47.90;101500.33;110154;1251;19653;-39
2023/04/05 03:13:32;;;;;;;;;1.00;1.00;;;;;20.11;47.85;101501.07;110133;1263;20019;-39
2023/04/05 03:15:59;;;;;;;;;1.50;1.50;;;;;20.12;47.93;101499.77;110208;1263;19234;-40
2023/04/05 03:18:28;;;;;;;;;2.00;2.00;;;;;20.11;47.91;101499.60;110184;1263;20362;-39
2023/04/05 03:20:56;;;;;;;;;2.00;2.00;;;;;20.11;47.76;101500.32;110164;1248;20035;-39
2023/04/05 03:23:26;;;;;;;;;2.00;2.00;;;;;20.12;47.83;101503.04;110199;1251;20945;-39
2023/04/05 03:25:53;;;;;;;;;2.00;2.00;;;;;20.11;47.88;101497.09;110180;1263;18497;-40
2023/04/05 03:28:20;;;;;;;;;2.00;2.00;;;;;20.11;47.85;101505.83;110189;1251;20053;-38
2023/04/05 03:30:48;;;;;;;;;2.00;2.00;;;;;20.11;47.79;101504.02;110214;1263;19296;-38
2023/04/05 03:33:15;;;;;;;;;1.50;1.50;;;;;20.12;47.80;101500.26;110144;1251;19625;-38
2023/04/05 03:35:42;;;;;;;;;2.00;2.00;;;;;20.11;47.88;101505.79;110112;1263;18596;-38
2023/04/05 03:38:10;;;;;;;;;4.00;2.00;;;;;20.11;47.91;101504.34;110160;1251;20677;-37
2023/04/05 03:40:37;;;;;;;;;2.00;1.00;;;;;20.10;47.79;101500.79;110278;1257;18306;-38
2023/04/05 03:43:04;;;;;;;;;2.00;2.00;;;;;20.10;47.92;101500.27;110304;1257;19796;-38
2023/04/05 03:45:32;;;;;;;;;2.00;2.00;;;;;20.10;47.83;101497.89;110256;1248;22248;-38
2023/04/05 03:48:00;;;;;;;;;4.00;2.00;;;;;20.11;47.71;101498.77;110351;1263;18538;-38
2023/04/05 03:50:27;;;;;;;;;2.00;2.00;;;;;20.11;47.60;101496.97;110250;1248;22283;-37
2023/04/05 03:52:54;;;;;;;;;2.00;2.00;;;;;20.10;47.90;101492.70;110223;1257;20808;-38
2023/04/05 03:55:21;;;;;;;;;1.50;1.50;;;;;20.10;47.64;101491.01;110220;1251;18284;-40
2023/04/05 03:57:49;;;;;;;;;2.00;2.00;;;;;20.09;47.90;101487.98;110224;1263;18563;-39
2023/04/05 04:00:17;;;;;;;;;2.00;2.00;;;;;20.10;47.79;101488.67;110222;1248;20791;-38
2023/04/05 04:02:44;;;;;;;;;2.00;2.00;;;;;20.09;47.84;101489.27;110185;1251;22149;-38
2023/04/05 04:05:12;;;;;;;;;2.00;2.00;;;;;20.09;47.73;101492.63;110199;1251;20026;-39
2023/04/05 04:07:40;;;;;;;;;2.00;2.00;;;;;20.10;47.71;101490.70;110198;1248;20738;-41
2023/04/05 04:10:07;;;;;;;;;2.00;2.00;;;;;20.10;47.89;101493.73;110208;1250;18392;-39
2023/04/05 04:12:35;;;;;;;;;1.00;1.00;;;;;20.09;47.66;101493.07;110204;1250;20061;-39
2023/04/05 04:15:02;;;;;;;;;2.00;2.00;;;;;20.09;47.74;101493.10;110205;1257;23152;-40
2023/04/05 04:17:30;;;;;;;;;2.00;2.00;;;;;20.09;47.58;101497.30;110178;1251;19624;-39
2023/04/05 04:19:57;;;;;;;;;2.00;2.00;;;;;20.09;47.80;101500.20;110206;1248;22766;-39
2023/04/05 04:22:25;;;;;;;;;2.00;2.00;;;;;20.08;47.65;101499.77;110224;1251;20781;-40
2023/04/05 04:24:53;;;;;;;;;4.00;2.00;;;;;20.08;47.77;101505.34;110208;1263;18366;-40
2023/04/05 04:27:20;;;;;;;;;4.00;2.00;;;;;20.09;47.89;101509.40;110173;1263;18613;-38
2023/04/05 04:29:48;;;;;;;;;2.00;2.00;;;;;20.09;47.70;101507.46;110217;1263;19440;-38
2023/04/05 04:32:15;;;;;;;;;2.00;2.00;;;;;20.09;47.55;101509.29;110221;1251;19518;-40
2023/04/05 04:34:43;;;;;;;;;4.00;4.00;;;;;20.08;47.69;101505.00;110209;1263;18640;-40
2023/04/05 04:37:17;;;;;;;;;2.00;2.00;;;;;20.09;47.77;101510.52;110194;1264;19799;-39
2023/04/05 04:39:46;;;;;;;;;2.00;2.00;;;;;20.09;47.62;101510.15;110215;1248;22513;-40
2023/04/05 04:42:13;;;;;;;;;2.50;2.50;;;;;20.08;47.73;101510.95;110133;1248;20215;-39
2023/04/05 04:44:41;;;;;;;;;2.00;2.00;;;;;20.09;47.57;101510.58;110210;1263;20858;-39
2023/04/05 04:47:12;;;;;;;;;4.00;4.00;;;;;20.11;47.75;101511.64;110211;1250;19660;-39
2023/04/05 04:49:40;;;;;;;;;4.00;4.00;;;;;20.14;47.69;101509.63;110210;1263;20018;-39
2023/04/05 04:52:07;;;;;;;;;1.00;1.00;;;;;20.18;48.03;101514.67;110244;1248;20815;-39
2023/04/05 04:54:35;;;;;;;;;4.00;4.00;;;;;20.19;48.22;101516.04;110205;1250;19817;-39
2023/04/05 04:57:02;;;;;;;;;4.00;2.00;;;;;20.20;48.78;101512.55;110175;1251;22216;-39
2023/04/05 04:59:29;;;;;;;;;2.00;2.00;;;;;20.23;49.02;101510.02;110184;1263;22832;-40
2023/04/05 05:01:57;;;;;;;;;4.00;4.00;;;;;20.26;49.27;101510.59;110176;1251;19657;-39
2023/04/05 05:04:24;;;;;;;;;3.00;2.00;;;;;20.29;49.38;101507.98;110203;1264;18754;-39
2023/04/05 05:06:52;;;;;;;;;2.00;2.00;;;;;20.30;49.53;101511.46;110200;1264;20957;-43
2023/04/05 05:09:19;;;;;;;;;2.00;2.00;;;;;20.31;49.75;101508.64;110199;1263;19600;-39
2023/04/05 05:11:46;;;;;;;;;2.00;2.00;;;;;20.34;49.90;101510.95;110149;1248;20103;-39
2023/04/05 05:14:14;;;;;;;;;4.00;4.00;;;;;20.36;49.97;101513.97;110252;1250;20812;-40
2023/04/05 05:16:41;;;;;;;;;4.00;4.00;;;;;20.40;49.76;101516.63;110297;1257;19608;-39
2023/04/05 05:19:09;;;;;;;;;4.00;4.00;;;;;20.41;50.05;101514.94;110217;1263;20010;-39
2023/04/05 05:21:36;;;;;;;;;4.50;4.50;;;;;20.41;49.99;101514.77;110199;1251;22254;-39
2023/04/05 05:24:06;;;;;;;;;2.00;2.00;;;;;20.41;49.88;101518.51;110203;1263;18460;-38
2023/04/05 05:26:33;;;;;;;;;4.00;2.00;;;;;20.41;49.65;101517.66;110101;1249;19917;-39
2023/04/05 05:29:01;;;;;;;;;5.00;4.00;;;;;20.40;50.12;101516.66;110223;1263;19364;-39
2023/04/05 05:31:31;;;;;;;;;4.00;4.00;;;;;20.40;50.14;101520.27;110196;1257;19592;-40
2023/04/05 05:33:59;;;;;;;;;7.00;5.00;;;;;20.37;49.76;101519.69;110175;1263;18932;-40
2023/04/05 05:36:26;;;;;;;;;4.00;4.00;;;;;20.35;49.35;101517.49;110189;1263;19376;-38
2023/04/05 05:38:54;;;;;;;;;4.00;4.00;;;;;20.37;49.52;101516.80;110202;1263;23571;-39
2023/04/05 05:41:21;;;;;;;;;4.00;4.00;;;;;20.38;49.48;101517.55;110184;1263;22920;-38
2023/04/05 05:43:49;;;;;;;;;2.00;2.00;;;;;20.39;49.33;101510.08;110196;1251;20636;-39
2023/04/05 05:46:18;;;;;;;;;3.00;3.00;;;;;20.39;49.18;101512.57;110199;1263;18585;-39
2023/04/05 05:48:45;;;;;;;;;4.00;2.00;;;;;20.40;49.25;101518.13;110237;1260;18581;-39
2023/04/05 05:51:12;;;;;;;;;2.00;2.00;;;;;20.41;49.06;101513.64;110228;1263;20784;-39
2023/04/05 05:53:40;;;;;;;;;2.00;2.00;;;;;20.43;48.93;101514.34;110219;1263;18384;-38
2023/04/05 05:56:08;;;;;;;;;5.00;5.00;;;;;20.43;48.93;101512.13;110213;1251;20098;-39
2023/04/05 05:58:35;;;;;;;;;4.00;4.00;;;;;20.44;48.52;101515.13;110210;1263;20717;-39
2023/04/05 06:01:03;;;;;;;;;3.00;3.00;;;;;20.46;48.41;101514.02;110218;1263;18341;-38
2023/04/05 06:03:30;;;;;;;;;2.00;2.00;;;;;20.47;48.52;101508.36;110161;1263;18613;-39
2023/04/05 06:05:58;;;;;;;;;2.00;2.00;;;;;20.48;48.20;101510.81;110100;1250;20806;-39
2023/04/05 06:08:26;;;;;;;;;2.00;2.00;;;;;20.48;48.21;101511.46;110233;1263;21949;-39
2023/04/05 06:10:53;;;;;;;;;5.00;4.00;;;;;20.51;48.16;101510.29;110195;1257;19893;-39
2023/04/05 06:13:21;;;;;;;;;5.00;5.00;;;;;20.53;47.90;101509.70;110227;1263;19448;-39
2023/04/05 06:15:48;;;;;;;;;5.00;5.00;;;;;20.54;47.67;101511.45;110191;1263;19882;-39
2023/04/05 06:18:15;;;;;;;;;5.00;4.00;;;;;20.55;47.72;101510.63;110201;1251;20132;-38
2023/04/05 06:20:43;;;;;;;;;2.00;2.00;;;;;20.58;47.55;101514.13;110204;1257;20678;-38
2023/04/05 06:23:10;;;;;;;;;4.00;2.00;;;;;20.60;47.63;101515.58;110217;1263;20498;-38
2023/04/05 06:25:38;;;;;;;;;4.00;4.00;;;;;20.63;47.81;101517.80;110231;1251;20050;-39
2023/04/05 06:28:05;;;;;;;;;4.00;4.00;;;;;20.63;47.96;101520.49;110195;1248;19326;-39
2023/04/05 06:30:32;;;;;;;;;4.00;4.00;;;;;20.63;47.95;101514.86;110221;1256;19556;-39
2023/04/05 06:33:00;;;;;;;;;5.00;4.00;;;;;20.66;48.05;101511.30;110196;1263;18648;-41
2023/04/05 06:35:27;;;;;;;;;2.00;2.00;;;;;20.70;47.97;101515.42;110220;1251;20817;-39
2023/04/05 06:37:54;;;;;;;;;2.00;2.00;;;;;20.73;48.14;101518.30;110200;1248;20031;-40
2023/04/05 06:40:22;;;;;;;;;4.00;4.00;;;;;20.76;48.22;101517.55;110276;1251;20053;-40
2023/04/05 06:42:49;;;;;;;;;2.00;2.00;;;;;20.78;48.26;101514.37;110220;1251;20816;-40
2023/04/05 06:45:17;;;;;;;;;4.00;4.00;;;;;20.87;48.48;101515.66;110252;1248;22245;-39
2023/04/05 06:47:45;;;;;;;;;4.50;4.00;;;;;20.86;48.48;101517.59;110211;1263;19954;-40
2023/04/05 06:50:12;;;;;;;;;6.00;5.00;;;;;20.87;48.71;101517.64;110238;1263;20740;-39
2023/04/05 06:52:39;;;;;;;;;5.00;5.00;;;;;20.88;48.94;101517.39;110257;1248;22190;-39
2023/04/05 06:55:07;;;;;;;;;5.00;4.50;;;;;20.92;48.99;101518.80;110204;1263;20113;-39
2023/04/05 06:57:34;;;;;;;;;4.00;4.00;;;;;20.94;48.94;101516.58;110207;1264;19204;-41
2023/04/05 07:00:06;;;;;;;;;5.00;5.00;;;;;20.96;49.12;101515.45;110167;1264;18487;-40
2023/04/05 07:02:34;;;;;;;;;3.33;3.33;;;;;20.97;48.96;101514.64;110226;1256;18628;-39
2023/04/05 07:05:04;;;;;;;;;5.00;4.00;;;;;20.99;49.12;101513.67;110094;1250;22883;-39
2023/04/05 07:07:32;;;;;;;;;5.00;5.00;;;;;21.01;49.01;101515.86;110188;1263;19843;-39
2023/04/05 07:09:59;;;;;;;;;5.00;4.00;;;;;21.03;49.18;101516.83;110195;1264;18664;-41
2023/04/05 07:12:26;;;;;;;;;2.00;2.00;;;;;21.02;49.18;101512.42;110185;1251;20810;-41
2023/04/05 07:14:54;;;;;;;;;4.00;4.00;;;;;21.01;49.35;101505.13;110233;1248;23229;-39
2023/04/05 07:17:21;;;;;;;;;4.00;4.00;;;;;21.03;48.80;101506.10;110219;1251;20339;-40
2023/04/05 07:19:48;;;;;;;;;4.00;4.00;;;;;21.05;49.07;101505.20;110191;1251;20749;-41
2023/04/05 07:22:16;;;;;;;;;5.67;5.00;;;;;21.04;49.13;101508.40;110223;1250;20154;-40
2023/04/05 07:24:43;;;;;;;;;5.00;4.00;;;;;21.00;48.74;101504.63;110187;1248;19897;-39
2023/04/05 07:27:10;;;;;;;;;33.00;29.50;;;;;20.89;46.82;101506.38;110177;1248;22209;-41
2023/04/05 07:29:39;;;;;;;;;113.00;87.00;;;;;20.82;44.94;101504.96;110215;1263;18315;-40
2023/04/05 07:32:07;;;;;;;;;100.00;69.00;;;;;20.84;44.65;101506.75;110158;1250;20300;-40
2023/04/05 07:34:34;;;;;;;;;69.00;51.00;;;;;20.87;45.35;101508.58;110212;1248;20699;-41
2023/04/05 07:37:02;;;;;;;;;43.00;34.00;;;;;20.90;45.63;101511.35;110235;1263;22209;-41
2023/04/05 07:39:29;;;;;;;;;44.33;36.00;;;;;20.92;46.10;101510.59;110178;1264;20070;-41
2023/04/05 07:41:56;;;;;;;;;39.00;34.00;;;;;20.93;46.36;101508.09;110206;1263;20747;-41
2023/04/05 07:44:24;;;;;;;;;33.00;26.00;;;;;20.96;46.76;101508.88;110226;1263;19738;-41
2023/04/05 07:46:51;;;;;;;;;30.00;26.00;;;;;20.96;46.85;101508.67;110174;1251;20098;-40
2023/04/05 07:49:18;;;;;;;;;33.33;28.33;;;;;20.97;47.07;101508.06;110197;1257;20703;-41
2023/04/05 07:51:47;;;;;;;;;26.00;24.00;;;;;20.96;47.22;101509.77;110122;1251;20045;-39
2023/04/05 07:54:14;;;;;;;;;28.50;20.00;;;;;20.94;47.19;101508.02;110187;1257;18865;-40
2023/04/05 07:56:41;;;;;;;;;26.00;21.00;;;;;20.91;47.46;101508.73;110142;1251;22212;-41
2023/04/05 07:59:09;;;;;;;;;21.00;17.00;;;;;20.88;47.68;101509.19;110148;1263;19157;-40
2023/04/05 08:01:36;;;;;;;;;27.00;22.50;;;;;20.86;47.78;101506.34;110235;1263;18698;-40
2023/04/05 08:04:03;;;;;;;;;17.00;16.00;;;;;20.83;47.84;101509.52;110276;1249;20787;-39
2023/04/05 08:06:31;;;;;;;;;20.00;16.00;;;;;20.81;47.90;101510.98;110229;1251;18808;-40
2023/04/05 08:08:58;;;;;;;;;17.33;13.67;;;;;20.79;47.81;101507.42;110180;1251;20092;-40
2023/04/05 08:11:26;;;;;;;;;19.00;11.00;;;;;20.76;48.01;101508.45;110193;1248;20863;-41
2023/04/05 08:13:53;;;;;;;;;11.00;11.00;;;;;20.74;47.97;101511.52;110214;1251;22063;-42
2023/04/05 08:16:21;;;;;;;;;10.50;9.00;;;;;20.71;48.06;101509.70;110176;1251;20205;-41
2023/04/05 08:18:48;;;;;;;;;14.00;14.00;;;;;20.66;46.23;101508.23;110193;1250;20861;-41
2023/04/05 08:21:16;;;;;;;;;10.00;9.33;;;;;20.61;44.34;101513.27;110204;1250;18392;-40
2023/04/05 08:23:43;;;;;;;;;7.50;7.00;;;;;20.55;43.33;101513.90;110194;1263;18684;-40
2023/04/05 08:26:10;;;;;;;;;11.00;8.00;;;;;20.48;42.67;101509.45;110224;1248;22037;-40
2023/04/05 08:28:38;;;;;;;;;8.00;8.00;;;;;20.48;42.61;101510.16;109964;1250;367906;-39
2023/04/05 08:31:05;;;;;;;;;10.00;8.00;;;;;20.49;42.79;101509.73;110282;1263;19980;-40
2023/04/05 08:33:32;;;;;;;;;10.00;8.00;;;;;20.52;43.23;101508.91;110238;1248;19447;-39
2023/04/05 08:36:00;;;;;;;;;8.00;8.00;;;;;20.56;43.28;101504.71;110234;1251;20017;-39
2023/04/05 08:38:27;;;;;;;;;10.00;9.00;;;;;20.58;43.53;101508.55;110238;1250;21451;-39
2023/04/05 08:40:54;;;;;;;;;9.00;8.00;;;;;20.57;44.13;101499.17;110221;1251;20822;-39
2023/04/05 08:43:22;;;;;;;;;11.00;10.00;;;;;20.58;44.57;101499.63;110233;1263;18611;-40
2023/04/05 08:45:49;;;;;;;;;9.33;7.67;;;;;20.60;44.71;101500.91;110300;1257;22629;-40
2023/04/05 08:48:16;;;;;;;;;8.00;7.00;;;;;20.59;44.99;101503.45;110233;1263;19354;-40
2023/04/05 08:50:44;;;;;;;;;10.00;7.00;;;;;20.57;45.38;101503.66;110247;1248;23865;-39
2023/04/05 08:53:11;;;;;;;;;8.00;7.00;;;;;20.58;45.59;101502.15;110252;1251;20091;-39
2023/04/05 08:55:38;;;;;;;;;7.50;7.50;;;;;20.59;45.56;101498.77;110224;1251;20765;-39
2023/04/05 08:58:06;;;;;;;;;8.67;7.00;;;;;20.61;45.68;101500.05;110248;1249;19648;-40
2023/04/05 09:00:33;;;;;;;;;8.00;8.00;;;;;20.61;45.41;101498.25;110312;1248;21480;-40
2023/04/05 09:03:01;;;;;;;;;4.00;4.00;;;;;20.61;45.67;101501.86;110260;1249;21026;-41
2023/04/05 09:05:29;;;;;;;;;7.00;5.00;;;;;20.57;46.21;101498.83;110251;1248;21005;-39
2023/04/05 09:07:56;;;;;;;;;5.00;4.00;;;;;20.56;46.15;101499.97;110207;1264;18960;-39
2023/04/05 09:10:23;;;;;;;;;5.00;4.00;;;;;20.54;46.41;101503.40;110227;1264;20687;-39
2023/04/05 09:12:51;;;;;;;;;5.00;5.00;;;;;20.54;46.52;101508.48;110234;1263;19591;-40
2023/04/05 09:15:20;;;;;;;;;4.00;4.00;;;;;20.55;46.86;101508.98;110267;1248;18619;-41
2023/04/05 09:17:47;;;;;;;;;5.00;5.00;;;;;20.55;46.67;101512.20;110249;1251;19379;-39
2023/04/05 09:20:15;;;;;;;;;5.00;5.00;;;;;20.57;46.68;101510.64;110132;1248;19683;-40
2023/04/05 09:22:42;;;;;;;;;5.00;5.00;;;;;20.59;46.89;101510.98;110225;1251;20031;-40
2023/04/05 09:25:09;;;;;;;;;10.00;7.00;;;;;20.59;46.60;101509.86;110315;1263;19332;-40
2023/04/05 09:27:37;;;;;;;;;5.00;5.00;;;;;20.59;46.49;101509.83;110255;1248;18333;-40
2023/04/05 09:30:04;;;;;;;;;7.00;6.00;;;;;20.61;46.55;101511.64;110232;1263;18621;-40
2023/04/05 09:32:32;;;;;;;;;5.00;5.00;;;;;20.60;46.60;101513.95;110219;1251;20978;-40
2023/04/05 09:35:02;;;;;;;;;4.33;4.33;;;;;20.59;46.62;101513.44;110207;1263;18723;-41
2023/04/05 09:37:30;;;;;;;;;7.00;6.00;;;;;20.57;46.82;101512.18;110211;1250;20093;-40
2023/04/05 09:39:57;;;;;;;;;7.00;7.00;;;;;20.59;47.14;101511.70;110243;1251;20776;-40
2023/04/05 09:42:24;;;;;;;;;7.00;7.00;;;;;20.61;47.52;101512.41;110184;1251;22157;-40
2023/04/05 09:44:52;;;;;;;;;4.50;4.50;;;;;20.61;47.99;101513.40;110236;1251;20134;-40
2023/04/05 09:47:19;;;;;;;;;4.00;4.00;;;;;20.61;48.08;101511.63;110207;1248;20881;-40
2023/04/05 09:49:47;;;;;;;;;4.00;4.00;;;;;20.62;48.09;101516.44;110201;1251;22123;-40
2023/04/05 09:52:14;;;;;;;;;3.00;3.00;;;;;20.64;48.00;101515.89;110240;1248;19905;-42
2023/04/05 09:54:41;;;;;;;;;7.00;5.00;;;;;20.65;47.92;101513.61;110202;1248;19776;-43
2023/04/05 09:57:08;;;;;;;;;7.00;7.00;;;;;20.66;47.39;101512.39;110191;1254;18625;-40
2023/04/05 09:59:36;;;;;;;;;5.00;5.00;;;;;20.68;47.11;101518.55;110213;1264;18713;-39
2023/04/05 10:02:03;;;;;;;;;7.33;7.00;;;;;20.68;47.14;101516.11;110182;1264;19806;-41
2023/04/05 10:04:30;;;;;;;;;8.00;7.00;;;;;20.71;47.04;101510.40;110251;1263;21067;-40
2023/04/05 10:06:58;;;;;;;;;5.67;5.00;;;;;20.72;47.13;101515.41;110277;1250;20066;-41
2023/04/05 10:09:25;;;;;;;;;5.00;5.00;;;;;20.71;47.29;101516.92;110255;1263;19383;-40
2023/04/05 10:11:52;;;;;;;;;4.00;4.00;;;;;20.67;47.26;101510.12;110207;1263;18463;-40
2023/04/05 10:14:20;;;;;;;;;4.50;4.00;;;;;20.67;46.61;101507.53;110193;1263;21510;-41
2023/04/05 10:16:47;;;;;;;;;4.00;4.00;;;;;20.70;46.17;101511.91;110197;1248;20736;-41
2023/04/05 10:19:14;;;;;;;;;5.00;4.00;;;;;20.70;46.47;101516.28;110164;1263;19728;-40
2023/04/05 10:21:42;;;;;;;;;5.00;5.00;;;;;20.63;45.41;101510.52;110140;1263;18655;-40
2023/04/05 10:24:09;;;;;;;;;4.67;4.00;;;;;20.56;44.56;101503.77;110276;1251;20846;-40
2023/04/05 10:26:36;;;;;;;;;5.67;5.00;;;;;20.54;44.85;101501.40;110255;1257;18465;-39
2023/04/05 10:29:04;;;;;;;;;5.00;4.00;;;;;20.57;45.99;101501.88;110198;1251;20006;-39
2023/04/05 10:31:31;;;;;;;;;4.50;4.50;;;;;20.64;45.99;101501.32;110179;1263;19373;-40
2023/04/05 10:33:58;;;;;;;;;8.00;7.00;;;;;20.69;46.23;101498.80;110176;1257;19718;-39
2023/04/05 10:36:26;;;;;;;;;4.00;4.00;;;;;20.74;46.84;101500.50;110203;1257;19974;-40
2023/04/05 10:38:53;;;;;;;;;8.00;7.00;;;;;20.75;47.35;101502.56;110185;1251;20745;-40
2023/04/05 10:41:21;;;;;;;;;8.00;7.00;;;;;20.77;47.89;101502.34;110207;1251;21739;-41
2023/04/05 10:43:48;;;;;;;;;5.00;5.00;;;;;20.77;48.10;101500.84;110190;1264;18875;-40
2023/04/05 10:46:15;;;;;;;;;5.00;5.00;;;;;20.78;48.52;101501.15;110218;1251;20947;-41
2023/04/05 10:48:43;;;;;;;;;4.67;4.67;;;;;20.76;49.11;101502.43;110178;1263;21566;-41
2023/04/05 10:51:10;;;;;;;;;5.00;5.00;;;;;20.73;49.09;101498.93;110206;1257;19893;-41
2023/04/05 10:53:37;;;;;;;;;5.00;4.50;;;;;20.71;49.04;101496.80;110222;1263;19319;-40
2023/04/05 10:56:05;;;;;;;;;7.00;5.00;;;;;20.71;48.89;101499.20;110242;1263;18414;-43
2023/04/05 10:58:32;;;;;;;;;4.00;4.00;;;;;20.71;48.91;101499.33;110207;1263;20012;-39
2023/04/05 11:00:59;;;;;;;;;7.00;5.00;;;;;20.72;48.85;101496.91;110151;1249;20805;-41
2023/04/05 11:03:27;;;;;;;;;4.00;4.00;;;;;20.73;48.59;101495.53;110153;1254;19743;-42
2023/04/05 11:05:54;;;;;;;;;4.00;4.00;;;;;20.71;48.63;101496.27;110153;1265;18929;-40
2023/04/05 11:08:21;;;;;;;;;4.00;4.00;;;;;20.71;48.72;101491.70;110147;1265;19428;-39
2023/04/05 11:10:48;;;;;;;;;5.00;4.00;;;;;20.72;48.70;101498.86;110138;1254;18625;-40
2023/04/05 11:13:16;;;;;;;;;4.00;4.00;;;;;20.71;48.56;101495.88;110160;1265;18796;-40
2023/04/05 11:15:43;;;;;;;;;4.00;4.00;;;;;20.69;48.16;101497.71;110125;1265;19377;-41
2023/04/05 11:18:11;;;;;;;;;4.00;4.00;;;;;20.64;47.04;101495.92;110103;1265;18521;-41